Speer, Illinois
Current Conditions -  °F | °C
As of 4:15 AM on Saturday 20 Dec 2014 (Local Time) from KC75 Reporting Station
Overcast Overcast  
Wind Chill: 22°   Ceiling: 7000
Heat Index: 27°   Visibility: 7mi
Dew Point: 23°   Wind: 5mph
Humidity: 85%   Direction: 110°ESE
Pressure: 30.26"   Gusts: NA
Location:  40.99°N, 89.65°W
Report Text: KC75 201015Z AUTO 11004KT 7SM SCT060 OVC070 M03/M05 A3026 RMK AO2 T10261048
Loading
Personal Weather Stations






























Interactive Weather Map New forecast layout! Learn more

10-Day Weather Forecast

Advertisements
Track Severe Weather on mobile